sensor_id;sensor_type;location;lat;lon;timestamp;P1;durP1;ratioP1;P2;durP2;ratioP2
19929;SDS011;10127;47.780;9.606;2022-08-11T00:00:19;4.15;;;1.10;;
19929;SDS011;10127;47.780;9.606;2022-08-11T00:02:46;3.35;;;1.25;;
19929;SDS011;10127;47.780;9.606;2022-08-11T00:05:16;2.53;;;1.40;;
19929;SDS011;10127;47.780;9.606;2022-08-11T00:07:44;5.85;;;1.30;;
19929;SDS011;10127;47.780;9.606;2022-08-11T00:10:20;5.00;;;1.45;;
19929;SDS011;10127;47.780;9.606;2022-08-11T00:15:22;4.53;;;1.77;;
19929;SDS011;10127;47.780;9.606;2022-08-11T00:17:48;3.85;;;1.55;;
19929;SDS011;10127;47.780;9.606;2022-08-11T00:20:20;5.60;;;1.60;;
19929;SDS011;10127;47.780;9.606;2022-08-11T00:22:46;2.08;;;1.65;;
19929;SDS011;10127;47.780;9.606;2022-08-11T00:25:18;4.68;;;1.42;;
19929;SDS011;10127;47.780;9.606;2022-08-11T00:27:46;4.38;;;1.30;;
19929;SDS011;10127;47.780;9.606;2022-08-11T00:30:13;2.30;;;1.48;;
19929;SDS011;10127;47.780;9.606;2022-08-11T00:32:43;3.03;;;1.45;;
19929;SDS011;10127;47.780;9.606;2022-08-11T00:35:17;2.10;;;1.45;;
19929;SDS011;10127;47.780;9.606;2022-08-11T00:37:51;2.38;;;1.60;;
19929;SDS011;10127;47.780;9.606;2022-08-11T00:40:25;3.08;;;1.48;;
19929;SDS011;10127;47.780;9.606;2022-08-11T00:43:14;4.15;;;1.50;;
19929;SDS011;10127;47.780;9.606;2022-08-11T00:45:54;2.38;;;1.80;;
19929;SDS011;10127;47.780;9.606;2022-08-11T00:48:44;1.60;;;1.50;;
19929;SDS011;10127;47.780;9.606;2022-08-11T00:51:25;3.92;;;1.30;;
19929;SDS011;10127;47.780;9.606;2022-08-11T01:02:37;7.55;;;1.75;;
19929;SDS011;10127;47.780;9.606;2022-08-11T01:08:23;5.32;;;1.83;;
19929;SDS011;10127;47.780;9.606;2022-08-11T01:13:18;1.83;;;1.58;;
19929;SDS011;10127;47.780;9.606;2022-08-11T01:19:39;2.67;;;1.50;;
19929;SDS011;10127;47.780;9.606;2022-08-11T01:24:50;2.95;;;1.55;;
19929;SDS011;10127;47.780;9.606;2022-08-11T01:30:19;2.75;;;1.60;;
19929;SDS011;10127;47.780;9.606;2022-08-11T01:46:03;7.38;;;2.55;;
19929;SDS011;10127;47.780;9.606;2022-08-11T01:48:41;4.35;;;1.88;;
19929;SDS011;10127;47.780;9.606;2022-08-11T01:51:14;5.90;;;1.85;;
19929;SDS011;10127;47.780;9.606;2022-08-11T01:59:31;5.05;;;2.17;;
19929;SDS011;10127;47.780;9.606;2022-08-11T02:07:51;6.50;;;2.53;;
19929;SDS011;10127;47.780;9.606;2022-08-11T02:10:26;5.20;;;2.17;;
19929;SDS011;10127;47.780;9.606;2022-08-11T02:16:16;6.13;;;1.90;;
19929;SDS011;10127;47.780;9.606;2022-08-11T02:19:07;3.45;;;1.65;;
19929;SDS011;10127;47.780;9.606;2022-08-11T02:24:59;7.35;;;2.42;;
19929;SDS011;10127;47.780;9.606;2022-08-11T02:27:49;7.05;;;1.90;;
19929;SDS011;10127;47.780;9.606;2022-08-11T02:30:23;2.78;;;1.80;;
19929;SDS011;10127;47.780;9.606;2022-08-11T02:33:03;3.55;;;1.90;;
19929;SDS011;10127;47.780;9.606;2022-08-11T02:38:36;3.03;;;2.20;;
19929;SDS011;10127;47.780;9.606;2022-08-11T03:11:16;5.25;;;2.17;;
19929;SDS011;10127;47.780;9.606;2022-08-11T03:14:29;4.20;;;2.10;;
19929;SDS011;10127;47.780;9.606;2022-08-11T03:17:49;2.83;;;2.20;;
19929;SDS011;10127;47.780;9.606;2022-08-11T03:23:42;5.65;;;2.63;;
19929;SDS011;10127;47.780;9.606;2022-08-11T03:26:21;3.33;;;2.67;;
19929;SDS011;10127;47.780;9.606;2022-08-11T03:29:02;9.57;;;2.40;;
19929;SDS011;10127;47.780;9.606;2022-08-11T03:31:43;4.63;;;2.63;;
19929;SDS011;10127;47.780;9.606;2022-08-11T03:34:24;6.38;;;2.83;;
19929;SDS011;10127;47.780;9.606;2022-08-11T03:46:02;3.78;;;2.60;;
19929;SDS011;10127;47.780;9.606;2022-08-11T03:48:40;5.30;;;2.80;;
19929;SDS011;10127;47.780;9.606;2022-08-11T03:51:22;5.95;;;2.60;;
19929;SDS011;10127;47.780;9.606;2022-08-11T03:54:09;4.65;;;3.00;;
19929;SDS011;10127;47.780;9.606;2022-08-11T04:16:04;4.20;;;2.78;;
19929;SDS011;10127;47.780;9.606;2022-08-11T04:50:57;7.57;;;2.95;;
19929;SDS011;10127;47.780;9.606;2022-08-11T04:54:21;6.05;;;2.90;;
19929;SDS011;10127;47.780;9.606;2022-08-11T04:57:26;4.03;;;2.72;;
19929;SDS011;10127;47.780;9.606;2022-08-11T05:04:29;3.80;;;2.90;;
19929;SDS011;10127;47.780;9.606;2022-08-11T05:10:27;2.65;;;2.40;;
19929;SDS011;10127;47.780;9.606;2022-08-11T05:13:10;7.80;;;3.05;;
19929;SDS011;10127;47.780;9.606;2022-08-11T05:16:07;6.22;;;2.88;;
19929;SDS011;10127;47.780;9.606;2022-08-11T05:18:54;7.30;;;3.03;;
19929;SDS011;10127;47.780;9.606;2022-08-11T05:21:41;3.72;;;2.30;;
19929;SDS011;10127;47.780;9.606;2022-08-11T05:27:43;4.65;;;2.80;;
19929;SDS011;10127;47.780;9.606;2022-08-11T05:30:32;5.43;;;2.72;;
19929;SDS011;10127;47.780;9.606;2022-08-11T05:36:49;4.95;;;3.10;;
19929;SDS011;10127;47.780;9.606;2022-08-11T05:39:28;10.68;;;2.85;;
19929;SDS011;10127;47.780;9.606;2022-08-11T05:42:16;7.18;;;2.60;;
19929;SDS011;10127;47.780;9.606;2022-08-11T05:45:08;6.65;;;3.10;;
19929;SDS011;10127;47.780;9.606;2022-08-11T05:47:58;6.63;;;2.97;;
19929;SDS011;10127;47.780;9.606;2022-08-11T05:50:49;5.00;;;3.00;;
19929;SDS011;10127;47.780;9.606;2022-08-11T05:53:43;6.18;;;2.90;;
19929;SDS011;10127;47.780;9.606;2022-08-11T05:56:32;9.38;;;2.47;;
19929;SDS011;10127;47.780;9.606;2022-08-11T05:58:59;4.60;;;2.92;;
19929;SDS011;10127;47.780;9.606;2022-08-11T06:01:26;7.85;;;2.80;;
19929;SDS011;10127;47.780;9.606;2022-08-11T06:03:58;8.73;;;3.25;;
19929;SDS011;10127;47.780;9.606;2022-08-11T06:07:01;4.28;;;3.17;;
19929;SDS011;10127;47.780;9.606;2022-08-11T06:09:36;3.45;;;2.65;;
19929;SDS011;10127;47.780;9.606;2022-08-11T06:12:15;4.03;;;2.90;;
19929;SDS011;10127;47.780;9.606;2022-08-11T06:14:46;8.98;;;2.85;;
19929;SDS011;10127;47.780;9.606;2022-08-11T06:17:24;5.53;;;2.92;;
19929;SDS011;10127;47.780;9.606;2022-08-11T06:19:57;6.07;;;3.38;;
19929;SDS011;10127;47.780;9.606;2022-08-11T06:22:28;12.07;;;3.28;;
19929;SDS011;10127;47.780;9.606;2022-08-11T06:24:56;8.00;;;2.85;;
19929;SDS011;10127;47.780;9.606;2022-08-11T06:27:23;10.27;;;3.53;;
19929;SDS011;10127;47.780;9.606;2022-08-11T06:29:51;7.07;;;2.80;;
19929;SDS011;10127;47.780;9.606;2022-08-11T06:32:18;5.65;;;3.17;;
19929;SDS011;10127;47.780;9.606;2022-08-11T06:34:52;9.30;;;3.35;;
19929;SDS011;10127;47.780;9.606;2022-08-11T06:40:28;5.18;;;2.83;;
19929;SDS011;10127;47.780;9.606;2022-08-11T06:43:30;2.95;;;2.65;;
19929;SDS011;10127;47.780;9.606;2022-08-11T06:46:10;7.88;;;2.70;;
19929;SDS011;10127;47.780;9.606;2022-08-11T06:48:39;5.35;;;2.50;;
19929;SDS011;10127;47.780;9.606;2022-08-11T06:51:09;7.80;;;3.25;;
19929;SDS011;10127;47.780;9.606;2022-08-11T06:53:38;6.72;;;3.40;;
19929;SDS011;10127;47.780;9.606;2022-08-11T06:56:07;7.50;;;3.10;;
19929;SDS011;10127;47.780;9.606;2022-08-11T06:58:53;7.78;;;2.85;;
19929;SDS011;10127;47.780;9.606;2022-08-11T07:02:23;9.85;;;3.53;;
19929;SDS011;10127;47.780;9.606;2022-08-11T07:04:34;5.50;;;3.38;;
19929;SDS011;10127;47.780;9.606;2022-08-11T07:10:39;6.55;;;3.15;;
19929;SDS011;10127;47.780;9.606;2022-08-11T07:13:20;14.27;;;3.45;;
19929;SDS011;10127;47.780;9.606;2022-08-11T07:16:05;6.68;;;3.30;;
19929;SDS011;10127;47.780;9.606;2022-08-11T07:18:32;8.32;;;2.65;;
19929;SDS011;10127;47.780;9.606;2022-08-11T07:21:31;4.93;;;3.13;;
19929;SDS011;10127;47.780;9.606;2022-08-11T07:24:19;10.65;;;4.18;;
19929;SDS011;10127;47.780;9.606;2022-08-11T07:27:08;3.47;;;2.95;;
19929;SDS011;10127;47.780;9.606;2022-08-11T07:29:57;5.68;;;3.40;;
19929;SDS011;10127;47.780;9.606;2022-08-11T07:32:27;5.75;;;3.03;;
19929;SDS011;10127;47.780;9.606;2022-08-11T07:34:57;3.45;;;2.80;;
19929;SDS011;10127;47.780;9.606;2022-08-11T07:37:29;6.75;;;3.13;;
19929;SDS011;10127;47.780;9.606;2022-08-11T07:39:57;10.23;;;2.70;;
19929;SDS011;10127;47.780;9.606;2022-08-11T07:42:27;8.40;;;2.85;;
19929;SDS011;10127;47.780;9.606;2022-08-11T07:44:55;6.85;;;2.70;;
19929;SDS011;10127;47.780;9.606;2022-08-11T07:47:41;4.90;;;2.92;;
19929;SDS011;10127;47.780;9.606;2022-08-11T07:50:26;3.78;;;2.85;;
19929;SDS011;10127;47.780;9.606;2022-08-11T07:53:11;5.70;;;3.05;;
19929;SDS011;10127;47.780;9.606;2022-08-11T07:55:39;8.95;;;3.47;;
19929;SDS011;10127;47.780;9.606;2022-08-11T07:58:06;5.30;;;2.80;;
19929;SDS011;10127;47.780;9.606;2022-08-11T08:00:52;11.90;;;2.53;;
19929;SDS011;10127;47.780;9.606;2022-08-11T08:03:38;11.07;;;2.63;;
19929;SDS011;10127;47.780;9.606;2022-08-11T08:06:24;11.30;;;2.47;;
19929;SDS011;10127;47.780;9.606;2022-08-11T08:09:09;4.65;;;2.60;;
19929;SDS011;10127;47.780;9.606;2022-08-11T08:11:55;3.80;;;2.20;;
19929;SDS011;10127;47.780;9.606;2022-08-11T08:14:42;8.13;;;2.50;;
19929;SDS011;10127;47.780;9.606;2022-08-11T08:17:26;10.60;;;4.20;;
19929;SDS011;10127;47.780;9.606;2022-08-11T08:20:12;7.93;;;2.70;;
19929;SDS011;10127;47.780;9.606;2022-08-11T08:22:40;7.72;;;2.53;;
19929;SDS011;10127;47.780;9.606;2022-08-11T08:25:06;5.85;;;2.63;;
19929;SDS011;10127;47.780;9.606;2022-08-11T08:27:33;5.90;;;2.30;;
19929;SDS011;10127;47.780;9.606;2022-08-11T08:30:00;4.45;;;2.50;;
19929;SDS011;10127;47.780;9.606;2022-08-11T08:32:47;5.70;;;2.25;;
19929;SDS011;10127;47.780;9.606;2022-08-11T08:35:14;5.05;;;2.45;;
19929;SDS011;10127;47.780;9.606;2022-08-11T08:37:40;5.45;;;2.42;;
19929;SDS011;10127;47.780;9.606;2022-08-11T08:40:06;6.95;;;2.60;;
19929;SDS011;10127;47.780;9.606;2022-08-11T08:42:34;6.25;;;2.90;;
19929;SDS011;10127;47.780;9.606;2022-08-11T08:45:22;4.65;;;2.13;;
19929;SDS011;10127;47.780;9.606;2022-08-11T08:47:58;6.80;;;2.35;;
19929;SDS011;10127;47.780;9.606;2022-08-11T08:50:27;3.88;;;2.17;;
19929;SDS011;10127;47.780;9.606;2022-08-11T08:53:23;4.10;;;2.10;;
19929;SDS011;10127;47.780;9.606;2022-08-11T08:55:57;4.30;;;2.00;;
19929;SDS011;10127;47.780;9.606;2022-08-11T08:58:24;2.88;;;2.20;;
19929;SDS011;10127;47.780;9.606;2022-08-11T09:00:51;5.32;;;2.30;;
19929;SDS011;10127;47.780;9.606;2022-08-11T09:03:20;5.63;;;2.50;;
19929;SDS011;10127;47.780;9.606;2022-08-11T09:05:46;3.92;;;1.95;;
19929;SDS011;10127;47.780;9.606;2022-08-11T09:08:13;7.50;;;2.20;;
19929;SDS011;10127;47.780;9.606;2022-08-11T09:10:44;5.97;;;2.33;;
19929;SDS011;10127;47.780;9.606;2022-08-11T09:13:31;4.82;;;2.28;;
19929;SDS011;10127;47.780;9.606;2022-08-11T09:15:58;10.00;;;2.80;;
19929;SDS011;10127;47.780;9.606;2022-08-11T09:18:24;6.55;;;2.00;;
19929;SDS011;10127;47.780;9.606;2022-08-11T09:20:50;4.25;;;2.28;;
19929;SDS011;10127;47.780;9.606;2022-08-11T09:23:17;6.60;;;2.83;;
19929;SDS011;10127;47.780;9.606;2022-08-11T09:26:02;4.03;;;1.88;;
19929;SDS011;10127;47.780;9.606;2022-08-11T09:28:46;6.07;;;2.33;;
19929;SDS011;10127;47.780;9.606;2022-08-11T09:31:14;5.07;;;2.38;;
19929;SDS011;10127;47.780;9.606;2022-08-11T09:33:40;5.68;;;2.83;;
19929;SDS011;10127;47.780;9.606;2022-08-11T09:36:07;3.38;;;2.10;;
19929;SDS011;10127;47.780;9.606;2022-08-11T09:38:52;4.10;;;1.95;;
19929;SDS011;10127;47.780;9.606;2022-08-11T09:41:40;6.05;;;2.28;;
19929;SDS011;10127;47.780;9.606;2022-08-11T09:44:08;3.67;;;2.22;;
19929;SDS011;10127;47.780;9.606;2022-08-11T09:46:54;7.13;;;2.05;;
19929;SDS011;10127;47.780;9.606;2022-08-11T09:49:23;5.68;;;3.03;;
19929;SDS011;10127;47.780;9.606;2022-08-11T09:51:50;3.75;;;2.78;;
19929;SDS011;10127;47.780;9.606;2022-08-11T09:54:17;6.03;;;2.50;;
19929;SDS011;10127;47.780;9.606;2022-08-11T09:56:43;4.18;;;2.10;;
19929;SDS011;10127;47.780;9.606;2022-08-11T09:59:28;8.50;;;3.50;;
19929;SDS011;10127;47.780;9.606;2022-08-11T10:01:57;3.45;;;1.95;;
19929;SDS011;10127;47.780;9.606;2022-08-11T10:04:34;8.05;;;2.55;;
19929;SDS011;10127;47.780;9.606;2022-08-11T10:07:02;2.88;;;1.90;;
19929;SDS011;10127;47.780;9.606;2022-08-11T10:09:41;4.03;;;2.08;;
19929;SDS011;10127;47.780;9.606;2022-08-11T10:12:22;4.93;;;2.10;;
19929;SDS011;10127;47.780;9.606;2022-08-11T10:14:53;7.68;;;2.58;;
19929;SDS011;10127;47.780;9.606;2022-08-11T10:17:42;4.50;;;2.03;;
19929;SDS011;10127;47.780;9.606;2022-08-11T10:20:31;3.75;;;2.20;;
19929;SDS011;10127;47.780;9.606;2022-08-11T10:23:00;5.70;;;2.35;;
19929;SDS011;10127;47.780;9.606;2022-08-11T10:25:46;3.95;;;1.90;;
19929;SDS011;10127;47.780;9.606;2022-08-11T10:28:31;5.97;;;2.22;;
19929;SDS011;10127;47.780;9.606;2022-08-11T10:31:00;6.63;;;2.17;;
19929;SDS011;10127;47.780;9.606;2022-08-11T10:33:47;5.72;;;2.85;;
19929;SDS011;10127;47.780;9.606;2022-08-11T10:36:28;4.20;;;2.90;;
19929;SDS011;10127;47.780;9.606;2022-08-11T10:39:00;7.80;;;3.13;;
19929;SDS011;10127;47.780;9.606;2022-08-11T10:41:28;5.43;;;2.20;;
19929;SDS011;10127;47.780;9.606;2022-08-11T10:44:14;7.40;;;2.30;;
19929;SDS011;10127;47.780;9.606;2022-08-11T10:46:40;3.28;;;2.28;;
19929;SDS011;10127;47.780;9.606;2022-08-11T10:49:25;8.18;;;2.70;;
19929;SDS011;10127;47.780;9.606;2022-08-11T10:51:52;7.70;;;2.47;;
19929;SDS011;10127;47.780;9.606;2022-08-11T10:54:39;5.05;;;2.13;;
19929;SDS011;10127;47.780;9.606;2022-08-11T10:57:25;13.65;;;2.80;;
19929;SDS011;10127;47.780;9.606;2022-08-11T11:00:11;32.35;;;4.90;;
19929;SDS011;10127;47.780;9.606;2022-08-11T11:02:39;4.28;;;2.35;;
19929;SDS011;10127;47.780;9.606;2022-08-11T11:10:04;6.72;;;2.40;;
19929;SDS011;10127;47.780;9.606;2022-08-11T11:12:34;3.15;;;2.40;;
19929;SDS011;10127;47.780;9.606;2022-08-11T11:15:22;3.05;;;2.20;;
19929;SDS011;10127;47.780;9.606;2022-08-11T11:20:58;3.05;;;1.90;;
19929;SDS011;10127;47.780;9.606;2022-08-11T11:26:22;3.53;;;2.15;;
19929;SDS011;10127;47.780;9.606;2022-08-11T11:32:20;5.72;;;2.20;;
19929;SDS011;10127;47.780;9.606;2022-08-11T11:37:34;7.60;;;2.58;;
19929;SDS011;10127;47.780;9.606;2022-08-11T11:40:07;12.45;;;2.53;;
19929;SDS011;10127;47.780;9.606;2022-08-11T11:42:41;4.28;;;2.28;;
19929;SDS011;10127;47.780;9.606;2022-08-11T11:45:09;4.90;;;2.05;;
19929;SDS011;10127;47.780;9.606;2022-08-11T11:47:38;4.03;;;2.17;;
19929;SDS011;10127;47.780;9.606;2022-08-11T11:50:05;7.10;;;2.17;;
19929;SDS011;10127;47.780;9.606;2022-08-11T11:52:32;3.65;;;2.08;;
19929;SDS011;10127;47.780;9.606;2022-08-11T11:54:59;5.70;;;2.20;;
19929;SDS011;10127;47.780;9.606;2022-08-11T11:57:26;3.03;;;1.92;;
19929;SDS011;10127;47.780;9.606;2022-08-11T12:00:11;2.97;;;2.00;;
19929;SDS011;10127;47.780;9.606;2022-08-11T12:02:57;5.95;;;2.67;;
19929;SDS011;10127;47.780;9.606;2022-08-11T12:05:24;4.30;;;2.35;;
19929;SDS011;10127;47.780;9.606;2022-08-11T12:07:51;6.45;;;1.83;;
19929;SDS011;10127;47.780;9.606;2022-08-11T12:10:41;3.55;;;2.00;;
19929;SDS011;10127;47.780;9.606;2022-08-11T12:13:13;5.10;;;2.15;;
19929;SDS011;10127;47.780;9.606;2022-08-11T12:15:59;6.78;;;2.30;;
19929;SDS011;10127;47.780;9.606;2022-08-11T12:18:28;4.70;;;2.03;;
19929;SDS011;10127;47.780;9.606;2022-08-11T12:20:59;5.80;;;2.15;;
19929;SDS011;10127;47.780;9.606;2022-08-11T12:23:26;12.88;;;2.30;;
19929;SDS011;10127;47.780;9.606;2022-08-11T12:26:12;2.78;;;1.90;;
19929;SDS011;10127;47.780;9.606;2022-08-11T12:28:58;4.07;;;1.90;;
19929;SDS011;10127;47.780;9.606;2022-08-11T12:31:25;3.75;;;1.95;;
19929;SDS011;10127;47.780;9.606;2022-08-11T12:33:58;10.35;;;2.53;;
19929;SDS011;10127;47.780;9.606;2022-08-11T12:36:38;7.03;;;1.60;;
19929;SDS011;10127;47.780;9.606;2022-08-11T12:39:11;6.00;;;2.08;;
19929;SDS011;10127;47.780;9.606;2022-08-11T12:41:42;3.75;;;1.98;;
19929;SDS011;10127;47.780;9.606;2022-08-11T12:44:27;8.65;;;2.17;;
19929;SDS011;10127;47.780;9.606;2022-08-11T12:47:13;10.48;;;2.17;;
19929;SDS011;10127;47.780;9.606;2022-08-11T12:49:43;3.38;;;1.92;;
19929;SDS011;10127;47.780;9.606;2022-08-11T12:52:41;3.80;;;2.00;;
19929;SDS011;10127;47.780;9.606;2022-08-11T12:55:14;16.38;;;2.65;;
19929;SDS011;10127;47.780;9.606;2022-08-11T12:58:01;19.08;;;2.35;;
19929;SDS011;10127;47.780;9.606;2022-08-11T13:00:41;12.10;;;2.10;;
19929;SDS011;10127;47.780;9.606;2022-08-11T13:03:31;4.13;;;2.40;;
19929;SDS011;10127;47.780;9.606;2022-08-11T13:06:17;9.77;;;1.85;;
19929;SDS011;10127;47.780;9.606;2022-08-11T13:08:47;3.95;;;1.60;;
19929;SDS011;10127;47.780;9.606;2022-08-11T13:11:13;3.30;;;1.70;;
19929;SDS011;10127;47.780;9.606;2022-08-11T13:13:59;3.90;;;1.92;;
19929;SDS011;10127;47.780;9.606;2022-08-11T13:16:27;3.28;;;1.98;;
19929;SDS011;10127;47.780;9.606;2022-08-11T13:18:56;3.72;;;2.08;;
19929;SDS011;10127;47.780;9.606;2022-08-11T13:21:24;5.95;;;2.00;;
19929;SDS011;10127;47.780;9.606;2022-08-11T13:23:52;4.20;;;2.00;;
19929;SDS011;10127;47.780;9.606;2022-08-11T13:26:20;3.45;;;2.00;;
19929;SDS011;10127;47.780;9.606;2022-08-11T13:28:47;8.00;;;2.33;;
19929;SDS011;10127;47.780;9.606;2022-08-11T13:31:14;7.30;;;2.25;;
19929;SDS011;10127;47.780;9.606;2022-08-11T13:33:41;3.28;;;2.00;;
19929;SDS011;10127;47.780;9.606;2022-08-11T13:36:10;4.68;;;1.70;;
19929;SDS011;10127;47.780;9.606;2022-08-11T13:38:37;9.38;;;2.08;;
19929;SDS011;10127;47.780;9.606;2022-08-11T13:41:06;4.35;;;3.13;;
19929;SDS011;10127;47.780;9.606;2022-08-11T13:43:51;4.13;;;2.30;;
19929;SDS011;10127;47.780;9.606;2022-08-11T13:46:19;4.15;;;1.70;;
19929;SDS011;10127;47.780;9.606;2022-08-11T13:48:46;34.53;;;2.00;;
19929;SDS011;10127;47.780;9.606;2022-08-11T13:51:13;5.18;;;2.10;;
19929;SDS011;10127;47.780;9.606;2022-08-11T13:54:02;6.43;;;1.70;;
19929;SDS011;10127;47.780;9.606;2022-08-11T13:56:35;2.05;;;1.80;;
19929;SDS011;10127;47.780;9.606;2022-08-11T13:59:07;4.57;;;1.90;;
19929;SDS011;10127;47.780;9.606;2022-08-11T14:01:34;2.92;;;1.60;;
19929;SDS011;10127;47.780;9.606;2022-08-11T14:04:07;3.53;;;2.00;;
19929;SDS011;10127;47.780;9.606;2022-08-11T14:06:35;2.47;;;1.90;;
19929;SDS011;10127;47.780;9.606;2022-08-11T14:09:10;2.88;;;1.90;;
19929;SDS011;10127;47.780;9.606;2022-08-11T14:11:37;2.10;;;1.40;;
19929;SDS011;10127;47.780;9.606;2022-08-11T14:14:26;1.85;;;1.45;;
19929;SDS011;10127;47.780;9.606;2022-08-11T14:16:58;3.10;;;1.77;;
19929;SDS011;10127;47.780;9.606;2022-08-11T14:19:29;5.25;;;1.80;;
19929;SDS011;10127;47.780;9.606;2022-08-11T14:21:59;11.50;;;2.40;;
19929;SDS011;10127;47.780;9.606;2022-08-11T14:24:33;4.28;;;3.03;;
19929;SDS011;10127;47.780;9.606;2022-08-11T14:27:07;2.58;;;1.88;;
19929;SDS011;10127;47.780;9.606;2022-08-11T14:29:37;8.98;;;1.90;;
19929;SDS011;10127;47.780;9.606;2022-08-11T14:32:05;4.82;;;1.65;;
19929;SDS011;10127;47.780;9.606;2022-08-11T14:34:33;4.60;;;1.95;;
19929;SDS011;10127;47.780;9.606;2022-08-11T14:37:03;5.43;;;1.60;;
19929;SDS011;10127;47.780;9.606;2022-08-11T14:42:11;2.25;;;1.70;;
19929;SDS011;10127;47.780;9.606;2022-08-11T14:45:00;5.82;;;2.75;;
19929;SDS011;10127;47.780;9.606;2022-08-11T14:47:49;4.93;;;1.55;;
19929;SDS011;10127;47.780;9.606;2022-08-11T14:50:17;3.67;;;1.85;;
19929;SDS011;10127;47.780;9.606;2022-08-11T14:52:54;3.20;;;1.65;;
19929;SDS011;10127;47.780;9.606;2022-08-11T14:55:22;2.47;;;1.63;;
19929;SDS011;10127;47.780;9.606;2022-08-11T14:58:09;2.85;;;1.52;;
19929;SDS011;10127;47.780;9.606;2022-08-11T15:00:40;2.40;;;1.60;;
19929;SDS011;10127;47.780;9.606;2022-08-11T15:03:06;2.67;;;1.50;;
19929;SDS011;10127;47.780;9.606;2022-08-11T15:05:57;4.68;;;1.63;;
19929;SDS011;10127;47.780;9.606;2022-08-11T15:08:25;3.67;;;1.60;;
19929;SDS011;10127;47.780;9.606;2022-08-11T15:11:14;4.25;;;1.58;;
19929;SDS011;10127;47.780;9.606;2022-08-11T15:14:00;5.40;;;1.80;;
19929;SDS011;10127;47.780;9.606;2022-08-11T15:16:27;3.30;;;1.63;;
19929;SDS011;10127;47.780;9.606;2022-08-11T15:19:12;3.95;;;1.60;;
19929;SDS011;10127;47.780;9.606;2022-08-11T15:21:39;2.22;;;1.60;;
19929;SDS011;10127;47.780;9.606;2022-08-11T15:24:24;1.92;;;1.45;;
19929;SDS011;10127;47.780;9.606;2022-08-11T15:26:50;7.47;;;1.85;;
19929;SDS011;10127;47.780;9.606;2022-08-11T15:29:36;2.35;;;1.50;;
19929;SDS011;10127;47.780;9.606;2022-08-11T15:32:23;8.05;;;2.08;;
19929;SDS011;10127;47.780;9.606;2022-08-11T15:35:08;5.82;;;1.75;;
19929;SDS011;10127;47.780;9.606;2022-08-11T15:37:55;2.97;;;1.70;;
19929;SDS011;10127;47.780;9.606;2022-08-11T15:40:29;2.90;;;1.52;;
19929;SDS011;10127;47.780;9.606;2022-08-11T15:49:17;1.98;;;1.60;;
19929;SDS011;10127;47.780;9.606;2022-08-11T15:51:49;6.60;;;3.67;;
19929;SDS011;10127;47.780;9.606;2022-08-11T15:54:28;5.65;;;1.70;;
19929;SDS011;10127;47.780;9.606;2022-08-11T15:56:55;6.93;;;1.70;;
19929;SDS011;10127;47.780;9.606;2022-08-11T15:59:22;2.50;;;1.73;;
19929;SDS011;10127;47.780;9.606;2022-08-11T16:02:13;4.95;;;1.58;;
19929;SDS011;10127;47.780;9.606;2022-08-11T16:05:00;5.53;;;1.70;;
19929;SDS011;10127;47.780;9.606;2022-08-11T16:07:29;2.85;;;1.50;;
19929;SDS011;10127;47.780;9.606;2022-08-11T16:12:42;6.50;;;1.85;;
19929;SDS011;10127;47.780;9.606;2022-08-11T16:15:38;2.42;;;1.50;;
19929;SDS011;10127;47.780;9.606;2022-08-11T16:21:26;5.95;;;1.60;;
19929;SDS011;10127;47.780;9.606;2022-08-11T16:24:00;1.55;;;1.45;;
19929;SDS011;10127;47.780;9.606;2022-08-11T16:26:30;3.13;;;1.30;;
19929;SDS011;10127;47.780;9.606;2022-08-11T16:28:59;2.72;;;1.70;;
19929;SDS011;10127;47.780;9.606;2022-08-11T16:31:26;2.92;;;1.73;;
19929;SDS011;10127;47.780;9.606;2022-08-11T16:33:53;2.58;;;1.92;;
19929;SDS011;10127;47.780;9.606;2022-08-11T16:36:22;3.97;;;1.88;;
19929;SDS011;10127;47.780;9.606;2022-08-11T16:39:08;4.43;;;1.75;;
19929;SDS011;10127;47.780;9.606;2022-08-11T16:41:36;3.10;;;1.80;;
19929;SDS011;10127;47.780;9.606;2022-08-11T16:44:23;4.68;;;1.88;;
19929;SDS011;10127;47.780;9.606;2022-08-11T16:47:11;6.93;;;2.00;;
19929;SDS011;10127;47.780;9.606;2022-08-11T16:49:50;3.95;;;2.00;;
19929;SDS011;10127;47.780;9.606;2022-08-11T16:52:18;5.70;;;1.73;;
19929;SDS011;10127;47.780;9.606;2022-08-11T16:54:46;6.07;;;2.13;;
19929;SDS011;10127;47.780;9.606;2022-08-11T16:57:25;3.42;;;2.20;;
19929;SDS011;10127;47.780;9.606;2022-08-11T17:00:11;7.55;;;1.88;;
19929;SDS011;10127;47.780;9.606;2022-08-11T17:02:48;3.22;;;1.60;;
19929;SDS011;10127;47.780;9.606;2022-08-11T17:05:34;5.68;;;1.63;;
19929;SDS011;10127;47.780;9.606;2022-08-11T17:08:29;3.47;;;1.67;;
19929;SDS011;10127;47.780;9.606;2022-08-11T17:11:17;3.13;;;1.77;;
19929;SDS011;10127;47.780;9.606;2022-08-11T17:14:08;4.80;;;1.92;;
19929;SDS011;10127;47.780;9.606;2022-08-11T17:16:38;5.43;;;2.13;;
19929;SDS011;10127;47.780;9.606;2022-08-11T17:19:15;3.58;;;1.83;;
19929;SDS011;10127;47.780;9.606;2022-08-11T17:21:48;2.33;;;1.85;;
19929;SDS011;10127;47.780;9.606;2022-08-11T17:24:34;2.78;;;2.03;;
19929;SDS011;10127;47.780;9.606;2022-08-11T17:27:03;5.38;;;1.92;;
19929;SDS011;10127;47.780;9.606;2022-08-11T17:32:02;8.38;;;2.13;;
19929;SDS011;10127;47.780;9.606;2022-08-11T17:35:13;5.50;;;2.10;;
19929;SDS011;10127;47.780;9.606;2022-08-11T17:40:34;3.42;;;2.28;;
19929;SDS011;10127;47.780;9.606;2022-08-11T17:43:03;6.53;;;2.10;;
19929;SDS011;10127;47.780;9.606;2022-08-11T17:45:51;4.43;;;2.13;;
19929;SDS011;10127;47.780;9.606;2022-08-11T17:48:51;6.10;;;1.75;;
19929;SDS011;10127;47.780;9.606;2022-08-11T17:51:18;5.45;;;1.95;;
19929;SDS011;10127;47.780;9.606;2022-08-11T17:54:03;4.72;;;2.20;;
19929;SDS011;10127;47.780;9.606;2022-08-11T17:56:49;5.78;;;1.80;;
19929;SDS011;10127;47.780;9.606;2022-08-11T17:59:35;3.72;;;1.90;;
19929;SDS011;10127;47.780;9.606;2022-08-11T18:02:16;6.20;;;2.75;;
19929;SDS011;10127;47.780;9.606;2022-08-11T18:05:06;3.80;;;1.85;;
19929;SDS011;10127;47.780;9.606;2022-08-11T18:07:33;5.00;;;2.17;;
19929;SDS011;10127;47.780;9.606;2022-08-11T18:10:18;5.97;;;2.00;;
19929;SDS011;10127;47.780;9.606;2022-08-11T18:13:04;4.43;;;1.98;;
19929;SDS011;10127;47.780;9.606;2022-08-11T18:15:49;4.35;;;2.00;;
19929;SDS011;10127;47.780;9.606;2022-08-11T18:18:34;3.28;;;2.25;;
19929;SDS011;10127;47.780;9.606;2022-08-11T18:21:18;6.03;;;2.28;;
19929;SDS011;10127;47.780;9.606;2022-08-11T18:24:09;5.68;;;1.88;;
19929;SDS011;10127;47.780;9.606;2022-08-11T18:26:57;3.88;;;2.17;;
19929;SDS011;10127;47.780;9.606;2022-08-11T18:29:44;3.17;;;2.00;;
19929;SDS011;10127;47.780;9.606;2022-08-11T18:32:31;3.90;;;2.17;;
19929;SDS011;10127;47.780;9.606;2022-08-11T18:35:19;3.33;;;2.10;;
19929;SDS011;10127;47.780;9.606;2022-08-11T18:38:05;2.58;;;1.90;;
19929;SDS011;10127;47.780;9.606;2022-08-11T18:40:53;5.38;;;2.40;;
19929;SDS011;10127;47.780;9.606;2022-08-11T18:43:40;2.15;;;1.92;;
19929;SDS011;10127;47.780;9.606;2022-08-11T18:46:28;4.03;;;2.30;;
19929;SDS011;10127;47.780;9.606;2022-08-11T18:49:17;7.20;;;2.10;;
19929;SDS011;10127;47.780;9.606;2022-08-11T18:52:06;8.00;;;2.80;;
19929;SDS011;10127;47.780;9.606;2022-08-11T18:54:52;5.15;;;2.22;;
19929;SDS011;10127;47.780;9.606;2022-08-11T18:57:39;5.20;;;2.45;;
19929;SDS011;10127;47.780;9.606;2022-08-11T19:00:26;3.90;;;2.28;;
19929;SDS011;10127;47.780;9.606;2022-08-11T19:03:12;5.05;;;2.20;;
19929;SDS011;10127;47.780;9.606;2022-08-11T19:05:59;6.53;;;2.35;;
19929;SDS011;10127;47.780;9.606;2022-08-11T19:08:45;6.50;;;2.67;;
19929;SDS011;10127;47.780;9.606;2022-08-11T19:11:35;6.13;;;2.50;;
19929;SDS011;10127;47.780;9.606;2022-08-11T19:14:21;5.85;;;2.20;;
19929;SDS011;10127;47.780;9.606;2022-08-11T19:17:07;5.82;;;2.60;;
19929;SDS011;10127;47.780;9.606;2022-08-11T19:19:53;3.97;;;2.75;;
19929;SDS011;10127;47.780;9.606;2022-08-11T19:22:39;5.55;;;2.50;;